sensor_id;sensor_type;location;lat;lon;timestamp;P1;durP1;ratioP1;P2;durP2;ratioP2
26951;SDS011;14507;52.418;13.398;2023-11-21T00:00:12;3.83;;;2.38;;
26951;SDS011;14507;52.418;13.398;2023-11-21T00:02:40;5.85;;;2.50;;
26951;SDS011;14507;52.418;13.398;2023-11-21T00:05:07;4.90;;;2.63;;
26951;SDS011;14507;52.418;13.398;2023-11-21T00:10:03;7.43;;;3.10;;
26951;SDS011;14507;52.418;13.398;2023-11-21T00:12:33;4.28;;;2.60;;
26951;SDS011;14507;52.418;13.398;2023-11-21T00:15:03;5.65;;;2.55;;
26951;SDS011;14507;52.418;13.398;2023-11-21T00:17:36;5.35;;;2.35;;
26951;SDS011;14507;52.418;13.398;2023-11-21T00:20:02;6.03;;;3.78;;
26951;SDS011;14507;52.418;13.398;2023-11-21T00:22:31;7.70;;;4.75;;
26951;SDS011;14507;52.418;13.398;2023-11-21T00:24:58;7.38;;;5.13;;
26951;SDS011;14507;52.418;13.398;2023-11-21T00:27:23;8.07;;;5.55;;
26951;SDS011;14507;52.418;13.398;2023-11-21T00:29:49;8.10;;;5.35;;
26951;SDS011;14507;52.418;13.398;2023-11-21T00:32:18;8.38;;;5.30;;
26951;SDS011;14507;52.418;13.398;2023-11-21T00:34:43;9.10;;;5.68;;
26951;SDS011;14507;52.418;13.398;2023-11-21T00:37:09;10.60;;;6.60;;
26951;SDS011;14507;52.418;13.398;2023-11-21T00:39:34;10.18;;;5.60;;
26951;SDS011;14507;52.418;13.398;2023-11-21T00:42:00;12.23;;;7.18;;
26951;SDS011;14507;52.418;13.398;2023-11-21T00:44:25;12.27;;;6.63;;
26951;SDS011;14507;52.418;13.398;2023-11-21T00:46:51;13.85;;;7.88;;
26951;SDS011;14507;52.418;13.398;2023-11-21T00:49:17;13.13;;;7.97;;
26951;SDS011;14507;52.418;13.398;2023-11-21T00:51:42;12.77;;;7.97;;
26951;SDS011;14507;52.418;13.398;2023-11-21T00:54:08;16.70;;;8.75;;
26951;SDS011;14507;52.418;13.398;2023-11-21T00:56:33;16.83;;;9.52;;
26951;SDS011;14507;52.418;13.398;2023-11-21T00:59:02;18.80;;;10.68;;
26951;SDS011;14507;52.418;13.398;2023-11-21T01:01:30;21.83;;;12.05;;
26951;SDS011;14507;52.418;13.398;2023-11-21T01:03:55;22.60;;;12.27;;
26951;SDS011;14507;52.418;13.398;2023-11-21T01:06:21;22.85;;;12.57;;
26951;SDS011;14507;52.418;13.398;2023-11-21T01:08:47;22.58;;;12.90;;
26951;SDS011;14507;52.418;13.398;2023-11-21T01:11:13;30.15;;;15.48;;
26951;SDS011;14507;52.418;13.398;2023-11-21T01:13:39;37.83;;;17.63;;
26951;SDS011;14507;52.418;13.398;2023-11-21T01:16:09;36.30;;;17.50;;
26951;SDS011;14507;52.418;13.398;2023-11-21T01:18:35;36.13;;;18.00;;
26951;SDS011;14507;52.418;13.398;2023-11-21T01:21:01;37.25;;;19.17;;
26951;SDS011;14507;52.418;13.398;2023-11-21T01:23:27;35.45;;;18.25;;
26951;SDS011;14507;52.418;13.398;2023-11-21T01:25:53;43.10;;;18.40;;
26951;SDS011;14507;52.418;13.398;2023-11-21T01:30:47;38.40;;;18.38;;
26951;SDS011;14507;52.418;13.398;2023-11-21T01:33:13;45.22;;;20.55;;
26951;SDS011;14507;52.418;13.398;2023-11-21T01:35:40;37.42;;;17.75;;
26951;SDS011;14507;52.418;13.398;2023-11-21T01:38:06;37.05;;;18.38;;
26951;SDS011;14507;52.418;13.398;2023-11-21T01:40:33;43.60;;;18.88;;
26951;SDS011;14507;52.418;13.398;2023-11-21T01:42:59;37.70;;;17.77;;
26951;SDS011;14507;52.418;13.398;2023-11-21T01:45:25;41.60;;;19.20;;
26951;SDS011;14507;52.418;13.398;2023-11-21T01:47:51;43.17;;;19.27;;
26951;SDS011;14507;52.418;13.398;2023-11-21T01:50:17;47.05;;;19.58;;
26951;SDS011;14507;52.418;13.398;2023-11-21T01:52:44;46.67;;;20.52;;
26951;SDS011;14507;52.418;13.398;2023-11-21T01:55:10;45.55;;;20.20;;
26951;SDS011;14507;52.418;13.398;2023-11-21T01:57:39;47.03;;;20.90;;
26951;SDS011;14507;52.418;13.398;2023-11-21T02:00:05;44.72;;;20.88;;
26951;SDS011;14507;52.418;13.398;2023-11-21T02:02:43;56.33;;;23.60;;
26951;SDS011;14507;52.418;13.398;2023-11-21T02:05:19;59.90;;;23.65;;
26951;SDS011;14507;52.418;13.398;2023-11-21T02:07:46;74.78;;;26.48;;
26951;SDS011;14507;52.418;13.398;2023-11-21T02:10:17;67.78;;;27.48;;
26951;SDS011;14507;52.418;13.398;2023-11-21T02:12:47;68.43;;;26.27;;
26951;SDS011;14507;52.418;13.398;2023-11-21T02:15:15;76.05;;;30.30;;
26951;SDS011;14507;52.418;13.398;2023-11-21T02:17:51;68.53;;;27.65;;
26951;SDS011;14507;52.418;13.398;2023-11-21T02:20:19;78.82;;;26.42;;
26951;SDS011;14507;52.418;13.398;2023-11-21T02:22:49;71.88;;;26.35;;
26951;SDS011;14507;52.418;13.398;2023-11-21T02:25:23;75.68;;;26.05;;
26951;SDS011;14507;52.418;13.398;2023-11-21T02:27:49;73.25;;;25.98;;
26951;SDS011;14507;52.418;13.398;2023-11-21T02:30:15;78.60;;;27.13;;
26951;SDS011;14507;52.418;13.398;2023-11-21T02:32:41;71.57;;;24.80;;
26951;SDS011;14507;52.418;13.398;2023-11-21T02:35:08;65.38;;;23.55;;
26951;SDS011;14507;52.418;13.398;2023-11-21T02:37:34;67.18;;;24.70;;
26951;SDS011;14507;52.418;13.398;2023-11-21T02:40:00;66.15;;;24.13;;
26951;SDS011;14507;52.418;13.398;2023-11-21T02:42:29;55.28;;;21.77;;
26951;SDS011;14507;52.418;13.398;2023-11-21T02:44:54;51.25;;;20.08;;
26951;SDS011;14507;52.418;13.398;2023-11-21T02:47:22;46.92;;;19.52;;
26951;SDS011;14507;52.418;13.398;2023-11-21T02:49:48;47.58;;;18.48;;
26951;SDS011;14507;52.418;13.398;2023-11-21T02:52:14;50.13;;;19.75;;
26951;SDS011;14507;52.418;13.398;2023-11-21T02:54:39;45.15;;;18.58;;
26951;SDS011;14507;52.418;13.398;2023-11-21T02:57:05;48.95;;;17.65;;
26951;SDS011;14507;52.418;13.398;2023-11-21T02:59:31;54.17;;;18.98;;
26951;SDS011;14507;52.418;13.398;2023-11-21T03:01:56;50.17;;;18.75;;
26951;SDS011;14507;52.418;13.398;2023-11-21T03:04:22;44.65;;;17.27;;
26951;SDS011;14507;52.418;13.398;2023-11-21T03:06:47;42.60;;;16.92;;
26951;SDS011;14507;52.418;13.398;2023-11-21T03:09:13;38.10;;;15.23;;
26951;SDS011;14507;52.418;13.398;2023-11-21T03:11:39;40.13;;;15.70;;
26951;SDS011;14507;52.418;13.398;2023-11-21T03:14:04;42.60;;;16.35;;
26951;SDS011;14507;52.418;13.398;2023-11-21T03:16:31;43.47;;;15.52;;
26951;SDS011;14507;52.418;13.398;2023-11-21T03:18:57;34.20;;;15.03;;
26951;SDS011;14507;52.418;13.398;2023-11-21T03:21:23;36.38;;;14.25;;
26951;SDS011;14507;52.418;13.398;2023-11-21T03:23:50;36.00;;;14.40;;
26951;SDS011;14507;52.418;13.398;2023-11-21T03:26:15;38.63;;;15.02;;
26951;SDS011;14507;52.418;13.398;2023-11-21T03:28:41;35.78;;;14.35;;
26951;SDS011;14507;52.418;13.398;2023-11-21T03:31:07;32.67;;;14.05;;
26951;SDS011;14507;52.418;13.398;2023-11-21T03:33:34;26.95;;;11.88;;
26951;SDS011;14507;52.418;13.398;2023-11-21T03:36:03;30.42;;;13.32;;
26951;SDS011;14507;52.418;13.398;2023-11-21T03:38:29;30.30;;;14.10;;
26951;SDS011;14507;52.418;13.398;2023-11-21T03:40:54;27.15;;;12.82;;
26951;SDS011;14507;52.418;13.398;2023-11-21T03:43:20;24.08;;;13.20;;
26951;SDS011;14507;52.418;13.398;2023-11-21T03:45:46;24.10;;;13.05;;
26951;SDS011;14507;52.418;13.398;2023-11-21T03:48:12;23.80;;;13.30;;
26951;SDS011;14507;52.418;13.398;2023-11-21T03:50:38;22.02;;;13.23;;
26951;SDS011;14507;52.418;13.398;2023-11-21T03:53:03;21.15;;;11.95;;
26951;SDS011;14507;52.418;13.398;2023-11-21T03:55:29;18.10;;;11.23;;
26951;SDS011;14507;52.418;13.398;2023-11-21T03:57:56;21.80;;;12.05;;
26951;SDS011;14507;52.418;13.398;2023-11-21T04:00:22;19.27;;;11.80;;
26951;SDS011;14507;52.418;13.398;2023-11-21T04:02:48;23.08;;;12.00;;
26951;SDS011;14507;52.418;13.398;2023-11-21T04:05:16;20.33;;;11.55;;
26951;SDS011;14507;52.418;13.398;2023-11-21T04:07:42;18.05;;;11.18;;
26951;SDS011;14507;52.418;13.398;2023-11-21T04:10:08;20.77;;;11.52;;
26951;SDS011;14507;52.418;13.398;2023-11-21T04:12:35;19.17;;;10.43;;
26951;SDS011;14507;52.418;13.398;2023-11-21T04:15:01;16.00;;;9.75;;
26951;SDS011;14507;52.418;13.398;2023-11-21T04:17:27;18.67;;;10.63;;
26951;SDS011;14507;52.418;13.398;2023-11-21T04:19:52;17.70;;;11.10;;
26951;SDS011;14507;52.418;13.398;2023-11-21T04:22:18;19.08;;;10.77;;
26951;SDS011;14507;52.418;13.398;2023-11-21T04:24:44;19.45;;;11.02;;
26951;SDS011;14507;52.418;13.398;2023-11-21T04:27:09;20.17;;;11.70;;
26951;SDS011;14507;52.418;13.398;2023-11-21T04:29:35;18.60;;;11.52;;
26951;SDS011;14507;52.418;13.398;2023-11-21T04:32:01;14.80;;;9.35;;
26951;SDS011;14507;52.418;13.398;2023-11-21T04:34:27;16.98;;;10.02;;
26951;SDS011;14507;52.418;13.398;2023-11-21T04:36:56;17.48;;;10.30;;
26951;SDS011;14507;52.418;13.398;2023-11-21T04:39:22;17.20;;;9.73;;
26951;SDS011;14507;52.418;13.398;2023-11-21T04:41:47;15.60;;;9.30;;
26951;SDS011;14507;52.418;13.398;2023-11-21T04:44:13;14.43;;;8.60;;
26951;SDS011;14507;52.418;13.398;2023-11-21T04:46:38;16.60;;;8.95;;
26951;SDS011;14507;52.418;13.398;2023-11-21T04:49:04;14.82;;;8.40;;
26951;SDS011;14507;52.418;13.398;2023-11-21T04:51:30;14.30;;;8.38;;
26951;SDS011;14507;52.418;13.398;2023-11-21T04:53:57;13.32;;;7.47;;
26951;SDS011;14507;52.418;13.398;2023-11-21T04:56:22;12.15;;;6.90;;
26951;SDS011;14507;52.418;13.398;2023-11-21T04:58:48;15.70;;;7.90;;
26951;SDS011;14507;52.418;13.398;2023-11-21T05:01:14;13.48;;;7.22;;
26951;SDS011;14507;52.418;13.398;2023-11-21T05:03:39;13.55;;;8.05;;
26951;SDS011;14507;52.418;13.398;2023-11-21T05:06:06;15.10;;;8.30;;
26951;SDS011;14507;52.418;13.398;2023-11-21T05:08:32;14.93;;;8.35;;
26951;SDS011;14507;52.418;13.398;2023-11-21T05:10:57;15.63;;;9.68;;
26951;SDS011;14507;52.418;13.398;2023-11-21T05:13:23;16.88;;;9.23;;
26951;SDS011;14507;52.418;13.398;2023-11-21T05:15:52;16.15;;;9.60;;
26951;SDS011;14507;52.418;13.398;2023-11-21T05:18:24;15.05;;;8.68;;
26951;SDS011;14507;52.418;13.398;2023-11-21T05:23:18;14.18;;;7.63;;
26951;SDS011;14507;52.418;13.398;2023-11-21T05:25:44;16.45;;;7.75;;
26951;SDS011;14507;52.418;13.398;2023-11-21T05:28:11;14.18;;;8.00;;
26951;SDS011;14507;52.418;13.398;2023-11-21T05:30:37;12.52;;;8.23;;
26951;SDS011;14507;52.418;13.398;2023-11-21T05:33:04;12.38;;;7.57;;
26951;SDS011;14507;52.418;13.398;2023-11-21T05:35:30;12.05;;;7.32;;
26951;SDS011;14507;52.418;13.398;2023-11-21T05:37:56;12.68;;;7.97;;
26951;SDS011;14507;52.418;13.398;2023-11-21T05:40:21;14.07;;;8.07;;
26951;SDS011;14507;52.418;13.398;2023-11-21T05:42:48;14.35;;;7.80;;
26951;SDS011;14507;52.418;13.398;2023-11-21T05:45:16;16.15;;;8.93;;
26951;SDS011;14507;52.418;13.398;2023-11-21T05:47:42;13.68;;;9.07;;
26951;SDS011;14507;52.418;13.398;2023-11-21T05:50:09;17.05;;;10.00;;
26951;SDS011;14507;52.418;13.398;2023-11-21T05:52:43;15.32;;;9.00;;
26951;SDS011;14507;52.418;13.398;2023-11-21T05:55:10;16.33;;;9.18;;
26951;SDS011;14507;52.418;13.398;2023-11-21T05:57:37;14.55;;;8.35;;
26951;SDS011;14507;52.418;13.398;2023-11-21T06:00:06;16.23;;;8.45;;
26951;SDS011;14507;52.418;13.398;2023-11-21T06:02:36;13.40;;;8.63;;
26951;SDS011;14507;52.418;13.398;2023-11-21T06:05:03;13.98;;;8.02;;
26951;SDS011;14507;52.418;13.398;2023-11-21T06:07:29;16.98;;;9.07;;
26951;SDS011;14507;52.418;13.398;2023-11-21T06:09:55;14.35;;;8.55;;
26951;SDS011;14507;52.418;13.398;2023-11-21T06:12:20;15.63;;;9.05;;
26951;SDS011;14507;52.418;13.398;2023-11-21T06:14:46;15.10;;;8.80;;
26951;SDS011;14507;52.418;13.398;2023-11-21T06:17:13;13.32;;;8.38;;
26951;SDS011;14507;52.418;13.398;2023-11-21T06:19:38;14.40;;;8.27;;
26951;SDS011;14507;52.418;13.398;2023-11-21T06:22:05;13.05;;;8.25;;
26951;SDS011;14507;52.418;13.398;2023-11-21T06:24:31;15.10;;;8.15;;
26951;SDS011;14507;52.418;13.398;2023-11-21T06:26:57;19.83;;;9.00;;
26951;SDS011;14507;52.418;13.398;2023-11-21T06:29:22;15.10;;;8.65;;
26951;SDS011;14507;52.418;13.398;2023-11-21T06:31:48;15.88;;;8.75;;
26951;SDS011;14507;52.418;13.398;2023-11-21T06:34:14;15.63;;;8.95;;
26951;SDS011;14507;52.418;13.398;2023-11-21T06:36:39;14.02;;;8.32;;
26951;SDS011;14507;52.418;13.398;2023-11-21T06:39:05;13.70;;;8.20;;
26951;SDS011;14507;52.418;13.398;2023-11-21T06:41:32;13.63;;;7.28;;
26951;SDS011;14507;52.418;13.398;2023-11-21T06:43:58;12.32;;;6.90;;
26951;SDS011;14507;52.418;13.398;2023-11-21T06:46:24;12.15;;;6.88;;
26951;SDS011;14507;52.418;13.398;2023-11-21T06:48:49;11.50;;;6.63;;
26951;SDS011;14507;52.418;13.398;2023-11-21T06:51:15;13.70;;;6.90;;
26951;SDS011;14507;52.418;13.398;2023-11-21T06:53:41;12.68;;;7.03;;
26951;SDS011;14507;52.418;13.398;2023-11-21T06:56:19;12.38;;;6.88;;
26951;SDS011;14507;52.418;13.398;2023-11-21T06:58:45;11.73;;;7.32;;
26951;SDS011;14507;52.418;13.398;2023-11-21T07:01:12;12.00;;;6.80;;
26951;SDS011;14507;52.418;13.398;2023-11-21T07:03:38;12.27;;;7.28;;
26951;SDS011;14507;52.418;13.398;2023-11-21T07:06:04;10.65;;;6.15;;
26951;SDS011;14507;52.418;13.398;2023-11-21T07:08:30;12.70;;;5.95;;
26951;SDS011;14507;52.418;13.398;2023-11-21T07:10:56;9.60;;;5.82;;
26951;SDS011;14507;52.418;13.398;2023-11-21T07:13:22;10.88;;;6.57;;
26951;SDS011;14507;52.418;13.398;2023-11-21T07:15:48;10.25;;;6.22;;
26951;SDS011;14507;52.418;13.398;2023-11-21T07:18:14;9.20;;;5.97;;
26951;SDS011;14507;52.418;13.398;2023-11-21T07:20:40;10.85;;;6.20;;
26951;SDS011;14507;52.418;13.398;2023-11-21T07:23:05;10.20;;;6.20;;
26951;SDS011;14507;52.418;13.398;2023-11-21T07:25:32;11.52;;;6.68;;
26951;SDS011;14507;52.418;13.398;2023-11-21T07:27:58;10.47;;;6.37;;
26951;SDS011;14507;52.418;13.398;2023-11-21T07:30:25;11.82;;;6.57;;
26951;SDS011;14507;52.418;13.398;2023-11-21T07:32:51;10.13;;;6.28;;
26951;SDS011;14507;52.418;13.398;2023-11-21T07:35:16;11.00;;;6.10;;
26951;SDS011;14507;52.418;13.398;2023-11-21T07:37:42;11.48;;;6.55;;
26951;SDS011;14507;52.418;13.398;2023-11-21T07:40:08;10.18;;;6.15;;
26951;SDS011;14507;52.418;13.398;2023-11-21T07:42:34;10.27;;;5.90;;
26951;SDS011;14507;52.418;13.398;2023-11-21T07:45:00;11.38;;;6.18;;
26951;SDS011;14507;52.418;13.398;2023-11-21T07:47:29;10.15;;;6.28;;
26951;SDS011;14507;52.418;13.398;2023-11-21T07:49:54;10.88;;;6.30;;
26951;SDS011;14507;52.418;13.398;2023-11-21T07:52:21;13.02;;;6.78;;
26951;SDS011;14507;52.418;13.398;2023-11-21T07:54:47;10.45;;;6.32;;
26951;SDS011;14507;52.418;13.398;2023-11-21T07:57:13;10.95;;;5.75;;
26951;SDS011;14507;52.418;13.398;2023-11-21T07:59:39;12.52;;;7.45;;
26951;SDS011;14507;52.418;13.398;2023-11-21T08:02:08;14.32;;;6.90;;
26951;SDS011;14507;52.418;13.398;2023-11-21T08:04:33;11.43;;;6.03;;
26951;SDS011;14507;52.418;13.398;2023-11-21T08:07:00;10.93;;;5.80;;
26951;SDS011;14507;52.418;13.398;2023-11-21T08:09:27;8.73;;;4.88;;
26951;SDS011;14507;52.418;13.398;2023-11-21T08:11:52;8.88;;;5.18;;
26951;SDS011;14507;52.418;13.398;2023-11-21T08:14:18;10.52;;;6.13;;
26951;SDS011;14507;52.418;13.398;2023-11-21T08:16:45;11.40;;;5.55;;
26951;SDS011;14507;52.418;13.398;2023-11-21T08:19:10;9.57;;;5.57;;
26951;SDS011;14507;52.418;13.398;2023-11-21T08:21:36;11.00;;;5.50;;
26951;SDS011;14507;52.418;13.398;2023-11-21T08:24:05;16.20;;;6.43;;
26951;SDS011;14507;52.418;13.398;2023-11-21T08:26:35;13.15;;;5.65;;
26951;SDS011;14507;52.418;13.398;2023-11-21T08:29:04;15.27;;;6.32;;
26951;SDS011;14507;52.418;13.398;2023-11-21T08:31:32;16.05;;;6.85;;
26951;SDS011;14507;52.418;13.398;2023-11-21T08:33:57;18.30;;;7.15;;
26951;SDS011;14507;52.418;13.398;2023-11-21T08:36:23;22.42;;;7.47;;
26951;SDS011;14507;52.418;13.398;2023-11-21T08:38:50;17.30;;;7.40;;
26951;SDS011;14507;52.418;13.398;2023-11-21T08:41:17;20.67;;;7.83;;
26951;SDS011;14507;52.418;13.398;2023-11-21T08:43:46;20.80;;;8.13;;
26951;SDS011;14507;52.418;13.398;2023-11-21T08:46:15;25.15;;;8.07;;
26951;SDS011;14507;52.418;13.398;2023-11-21T08:48:42;21.13;;;7.70;;
26951;SDS011;14507;52.418;13.398;2023-11-21T08:51:09;29.20;;;8.93;;
26951;SDS011;14507;52.418;13.398;2023-11-21T08:53:36;28.67;;;8.85;;
26951;SDS011;14507;52.418;13.398;2023-11-21T08:56:03;20.58;;;8.27;;
26951;SDS011;14507;52.418;13.398;2023-11-21T08:58:29;24.00;;;9.23;;
26951;SDS011;14507;52.418;13.398;2023-11-21T09:00:57;25.67;;;8.63;;
26951;SDS011;14507;52.418;13.398;2023-11-21T09:03:22;25.77;;;9.35;;
26951;SDS011;14507;52.418;13.398;2023-11-21T09:05:48;23.20;;;8.82;;
26951;SDS011;14507;52.418;13.398;2023-11-21T09:08:14;26.00;;;8.85;;
26951;SDS011;14507;52.418;13.398;2023-11-21T09:10:39;25.50;;;8.10;;
26951;SDS011;14507;52.418;13.398;2023-11-21T09:13:07;25.50;;;8.77;;
26951;SDS011;14507;52.418;13.398;2023-11-21T09:15:34;22.75;;;8.50;;
26951;SDS011;14507;52.418;13.398;2023-11-21T09:18:00;22.10;;;8.10;;
26951;SDS011;14507;52.418;13.398;2023-11-21T09:20:26;22.75;;;8.15;;
26951;SDS011;14507;52.418;13.398;2023-11-21T09:22:52;23.33;;;8.95;;
26951;SDS011;14507;52.418;13.398;2023-11-21T09:25:19;20.17;;;7.70;;
26951;SDS011;14507;52.418;13.398;2023-11-21T09:27:46;21.27;;;8.35;;
26951;SDS011;14507;52.418;13.398;2023-11-21T09:30:14;18.92;;;7.10;;
26951;SDS011;14507;52.418;13.398;2023-11-21T09:32:40;20.10;;;7.60;;
26951;SDS011;14507;52.418;13.398;2023-11-21T09:35:06;22.02;;;7.82;;
26951;SDS011;14507;52.418;13.398;2023-11-21T09:40:03;22.25;;;7.97;;
26951;SDS011;14507;52.418;13.398;2023-11-21T09:42:30;22.55;;;8.20;;
26951;SDS011;14507;52.418;13.398;2023-11-21T09:47:38;26.75;;;8.20;;
26951;SDS011;14507;52.418;13.398;2023-11-21T09:50:04;20.02;;;7.15;;
26951;SDS011;14507;52.418;13.398;2023-11-21T09:52:33;16.30;;;6.00;;
26951;SDS011;14507;52.418;13.398;2023-11-21T09:55:22;15.20;;;5.38;;
26951;SDS011;14507;52.418;13.398;2023-11-21T09:57:56;14.07;;;5.30;;
26951;SDS011;14507;52.418;13.398;2023-11-21T10:00:26;15.75;;;6.07;;
26951;SDS011;14507;52.418;13.398;2023-11-21T10:02:52;14.10;;;5.47;;
26951;SDS011;14507;52.418;13.398;2023-11-21T10:05:19;11.20;;;4.25;;
26951;SDS011;14507;52.418;13.398;2023-11-21T10:07:47;7.63;;;3.55;;
26951;SDS011;14507;52.418;13.398;2023-11-21T10:10:14;9.70;;;4.38;;
26951;SDS011;14507;52.418;13.398;2023-11-21T10:12:45;8.82;;;3.92;;
26951;SDS011;14507;52.418;13.398;2023-11-21T10:15:18;6.72;;;3.17;;
26951;SDS011;14507;52.418;13.398;2023-11-21T10:17:51;6.15;;;2.78;;
26951;SDS011;14507;52.418;13.398;2023-11-21T10:20:22;10.07;;;2.92;;
26951;SDS011;14507;52.418;13.398;2023-11-21T10:22:49;6.95;;;2.90;;
26951;SDS011;14507;52.418;13.398;2023-11-21T10:25:15;5.50;;;2.58;;
26951;SDS011;14507;52.418;13.398;2023-11-21T10:27:43;7.38;;;3.15;;
26951;SDS011;14507;52.418;13.398;2023-11-21T10:30:11;8.05;;;3.17;;
26951;SDS011;14507;52.418;13.398;2023-11-21T10:32:40;4.53;;;2.42;;
26951;SDS011;14507;52.418;13.398;2023-11-21T10:35:07;8.40;;;2.60;;
26951;SDS011;14507;52.418;13.398;2023-11-21T10:37:38;5.53;;;2.40;;
26951;SDS011;14507;52.418;13.398;2023-11-21T10:40:08;4.88;;;2.42;;
26951;SDS011;14507;52.418;13.398;2023-11-21T10:42:38;4.18;;;2.15;;
26951;SDS011;14507;52.418;13.398;2023-11-21T10:45:04;4.60;;;2.50;;
26951;SDS011;14507;52.418;13.398;2023-11-21T10:47:40;6.85;;;2.35;;
26951;SDS011;14507;52.418;13.398;2023-11-21T10:50:06;3.85;;;2.10;;
26951;SDS011;14507;52.418;13.398;2023-11-21T10:52:36;3.78;;;2.20;;
26951;SDS011;14507;52.418;13.398;2023-11-21T10:55:20;5.53;;;2.47;;
26951;SDS011;14507;52.418;13.398;2023-11-21T10:57:51;9.38;;;3.15;;
26951;SDS011;14507;52.418;13.398;2023-11-21T11:00:18;5.95;;;3.03;;
26951;SDS011;14507;52.418;13.398;2023-11-21T11:02:50;5.00;;;2.83;;
26951;SDS011;14507;52.418;13.398;2023-11-21T11:05:18;6.40;;;2.70;;
26951;SDS011;14507;52.418;13.398;2023-11-21T11:07:45;5.53;;;3.13;;
26951;SDS011;14507;52.418;13.398;2023-11-21T11:10:19;8.13;;;2.95;;
26951;SDS011;14507;52.418;13.398;2023-11-21T11:12:51;5.97;;;3.15;;
26951;SDS011;14507;52.418;13.398;2023-11-21T11:15:17;5.70;;;3.25;;
26951;SDS011;14507;52.418;13.398;2023-11-21T11:17:45;4.80;;;3.10;;
26951;SDS011;14507;52.418;13.398;2023-11-21T11:20:11;6.67;;;3.37;;
26951;SDS011;14507;52.418;13.398;2023-11-21T11:28:29;8.13;;;3.80;;
26951;SDS011;14507;52.418;13.398;2023-11-21T11:37:07;7.88;;;3.70;;
26951;SDS011;14507;52.418;13.398;2023-11-21T11:39:40;8.30;;;4.20;;
26951;SDS011;14507;52.418;13.398;2023-11-21T11:42:08;7.25;;;4.32;;
26951;SDS011;14507;52.418;13.398;2023-11-21T11:47:16;10.38;;;4.45;;
26951;SDS011;14507;52.418;13.398;2023-11-21T11:52:48;7.80;;;4.32;;
26951;SDS011;14507;52.418;13.398;2023-11-21T11:55:20;8.70;;;4.00;;
26951;SDS011;14507;52.418;13.398;2023-11-21T11:57:54;9.18;;;4.32;;
26951;SDS011;14507;52.418;13.398;2023-11-21T12:00:33;5.40;;;3.83;;
26951;SDS011;14507;52.418;13.398;2023-11-21T12:03:02;7.75;;;4.60;;
26951;SDS011;14507;52.418;13.398;2023-11-21T12:05:31;7.72;;;4.45;;
26951;SDS011;14507;52.418;13.398;2023-11-21T12:07:59;10.40;;;4.18;;
26951;SDS011;14507;52.418;13.398;2023-11-21T12:10:27;7.95;;;4.72;;
26951;SDS011;14507;52.418;13.398;2023-11-21T12:15:21;7.55;;;3.85;;
26951;SDS011;14507;52.418;13.398;2023-11-21T12:17:47;6.05;;;4.30;;
26951;SDS011;14507;52.418;13.398;2023-11-21T12:20:21;8.90;;;4.30;;
26951;SDS011;14507;52.418;13.398;2023-11-21T12:22:48;8.20;;;4.05;;
26951;SDS011;14507;52.418;13.398;2023-11-21T12:25:25;8.13;;;4.65;;
26951;SDS011;14507;52.418;13.398;2023-11-21T12:27:57;7.80;;;4.32;;
26951;SDS011;14507;52.418;13.398;2023-11-21T12:30:25;5.80;;;3.60;;
26951;SDS011;14507;52.418;13.398;2023-11-21T12:32:56;5.68;;;3.60;;
26951;SDS011;14507;52.418;13.398;2023-11-21T12:35:32;10.50;;;3.80;;
26951;SDS011;14507;52.418;13.398;2023-11-21T12:37:59;6.40;;;4.15;;
26951;SDS011;14507;52.418;13.398;2023-11-21T12:40:29;6.38;;;3.80;;
26951;SDS011;14507;52.418;13.398;2023-11-21T12:42:56;5.78;;;3.80;;
26951;SDS011;14507;52.418;13.398;2023-11-21T12:45:24;7.68;;;4.15;;
26951;SDS011;14507;52.418;13.398;2023-11-21T12:47:56;5.60;;;3.60;;
26951;SDS011;14507;52.418;13.398;2023-11-21T12:50:28;6.10;;;3.63;;
26951;SDS011;14507;52.418;13.398;2023-11-21T12:53:03;5.75;;;3.40;;
26951;SDS011;14507;52.418;13.398;2023-11-21T12:55:31;4.57;;;2.75;;
26951;SDS011;14507;52.418;13.398;2023-11-21T12:58:01;6.32;;;3.25;;
26951;SDS011;14507;52.418;13.398;2023-11-21T13:00:35;6.13;;;2.92;;
26951;SDS011;14507;52.418;13.398;2023-11-21T13:03:04;4.63;;;2.95;;
26951;SDS011;14507;52.418;13.398;2023-11-21T13:05:33;3.97;;;2.50;;
26951;SDS011;14507;52.418;13.398;2023-11-21T13:08:14;4.70;;;2.55;;
26951;SDS011;14507;52.418;13.398;2023-11-21T13:10:44;4.63;;;2.75;;
26951;SDS011;14507;52.418;13.398;2023-11-21T13:13:12;8.70;;;3.03;;
26951;SDS011;14507;52.418;13.398;2023-11-21T13:15:46;4.38;;;2.70;;
26951;SDS011;14507;52.418;13.398;2023-11-21T13:18:16;5.55;;;2.97;;
26951;SDS011;14507;52.418;13.398;2023-11-21T13:20:42;5.05;;;3.00;;
26951;SDS011;14507;52.418;13.398;2023-11-21T13:23:08;7.15;;;3.83;;
26951;SDS011;14507;52.418;13.398;2023-11-21T13:25:37;7.25;;;3.47;;
26951;SDS011;14507;52.418;13.398;2023-11-21T13:28:06;6.45;;;3.30;;
26951;SDS011;14507;52.418;13.398;2023-11-21T13:30:32;6.45;;;3.45;;
26951;SDS011;14507;52.418;13.398;2023-11-21T13:33:03;5.47;;;3.40;;
26951;SDS011;14507;52.418;13.398;2023-11-21T13:35:33;7.55;;;4.03;;
26951;SDS011;14507;52.418;13.398;2023-11-21T13:38:12;7.10;;;3.53;;
26951;SDS011;14507;52.418;13.398;2023-11-21T13:40:41;7.18;;;3.78;;
26951;SDS011;14507;52.418;13.398;2023-11-21T13:43:17;5.85;;;3.65;;
26951;SDS011;14507;52.418;13.398;2023-11-21T13:48:12;6.88;;;4.05;;
26951;SDS011;14507;52.418;13.398;2023-11-21T13:50:50;7.38;;;4.30;;
26951;SDS011;14507;52.418;13.398;2023-11-21T13:53:24;9.40;;;4.50;;
26951;SDS011;14507;52.418;13.398;2023-11-21T13:55:50;11.30;;;4.85;;
26951;SDS011;14507;52.418;13.398;2023-11-21T13:58:19;12.13;;;5.97;;
26951;SDS011;14507;52.418;13.398;2023-11-21T14:00:53;10.82;;;5.75;;
26951;SDS011;14507;52.418;13.398;2023-11-21T14:03:24;11.15;;;6.28;;
26951;SDS011;14507;52.418;13.398;2023-11-21T14:06:03;10.25;;;5.53;;
26951;SDS011;14507;52.418;13.398;2023-11-21T14:08:34;11.73;;;6.45;;
26951;SDS011;14507;52.418;13.398;2023-11-21T14:10:59;10.48;;;5.85;;
26951;SDS011;14507;52.418;13.398;2023-11-21T14:13:25;12.98;;;6.10;;
26951;SDS011;14507;52.418;13.398;2023-11-21T14:15:52;10.77;;;5.75;;
26951;SDS011;14507;52.418;13.398;2023-11-21T14:18:24;9.23;;;5.20;;
26951;SDS011;14507;52.418;13.398;2023-11-21T14:21:01;10.50;;;5.93;;
26951;SDS011;14507;52.418;13.398;2023-11-21T14:23:26;9.75;;;5.43;;
26951;SDS011;14507;52.418;13.398;2023-11-21T14:25:53;9.32;;;5.70;;
26951;SDS011;14507;52.418;13.398;2023-11-21T14:28:19;10.57;;;6.30;;
26951;SDS011;14507;52.418;13.398;2023-11-21T14:30:48;11.57;;;7.05;;
26951;SDS011;14507;52.418;13.398;2023-11-21T14:33:13;12.82;;;7.35;;
26951;SDS011;14507;52.418;13.398;2023-11-21T14:35:41;12.95;;;7.93;;
26951;SDS011;14507;52.418;13.398;2023-11-21T14:38:08;14.93;;;8.43;;
26951;SDS011;14507;52.418;13.398;2023-11-21T14:40:35;15.15;;;8.75;;
26951;SDS011;14507;52.418;13.398;2023-11-21T14:43:01;16.70;;;9.68;;
26951;SDS011;14507;52.418;13.398;2023-11-21T14:45:30;15.50;;;9.30;;
26951;SDS011;14507;52.418;13.398;2023-11-21T14:47:59;18.38;;;10.77;;
26951;SDS011;14507;52.418;13.398;2023-11-21T14:50:33;17.92;;;10.93;;
26951;SDS011;14507;52.418;13.398;2023-11-21T14:53:10;18.98;;;11.35;;
26951;SDS011;14507;52.418;13.398;2023-11-21T14:55:38;23.17;;;11.82;;
26951;SDS011;14507;52.418;13.398;2023-11-21T14:58:19;23.95;;;12.82;;